createdAt,value
2017-05-08T00:00:03.265Z,11.06
2017-05-08T00:01:03.286Z,11.09
2017-05-08T00:02:03.309Z,11.03
2017-05-08T00:03:03.343Z,11.06
2017-05-08T00:04:03.360Z,10.97
2017-05-08T00:05:03.378Z,10.94
2017-05-08T00:06:03.408Z,11.03
2017-05-08T00:07:18.028Z,10.92
2017-05-08T00:08:03.435Z,11
2017-05-08T00:09:03.455Z,10.89
2017-05-08T00:10:03.482Z,10.94
2017-05-08T00:11:03.498Z,10.94
2017-05-08T00:12:03.228Z,10.85
2017-05-08T00:13:03.542Z,10.79
2017-05-08T00:14:03.576Z,10.76
2017-05-08T00:15:03.619Z,10.71
2017-05-08T00:16:03.609Z,10.63
2017-05-08T00:17:18.245Z,10.61
2017-05-08T00:18:03.648Z,10.6
2017-05-08T00:19:18.285Z,10.47
2017-05-08T00:20:03.691Z,10.48
2017-05-08T00:21:03.713Z,10.56
2017-05-08T00:22:03.734Z,10.51
2017-05-08T00:24:03.777Z,10.44
2017-05-08T00:25:03.796Z,10.33
2017-05-08T00:26:03.821Z,10.33
2017-05-08T00:27:03.837Z,10.32
2017-05-08T00:28:03.866Z,10.32
2017-05-08T00:29:03.881Z,10.23
2017-05-08T00:30:03.906Z,10.36
2017-05-08T00:31:03.623Z,10.29
2017-05-08T00:32:03.945Z,10.3
2017-05-08T00:33:04.002Z,10.22
2017-05-08T00:34:03.987Z,10.25
2017-05-08T00:35:18.625Z,10.26
2017-05-08T00:36:04.030Z,10.25
2017-05-08T00:37:04.051Z,10.29
2017-05-08T00:38:18.691Z,10.3
2017-05-08T00:39:04.095Z,10.2
2017-05-08T00:40:04.116Z,10.18
2017-05-08T00:41:04.136Z,10.26
2017-05-08T00:42:04.161Z,10.25
2017-05-08T00:43:04.190Z,10.2
2017-05-08T00:44:04.198Z,10.26
2017-05-08T00:45:04.224Z,10.15
2017-05-08T00:46:04.248Z,10.04
2017-05-08T00:47:04.261Z,10.08
2017-05-08T00:48:04.283Z,10.04
2017-05-08T00:49:04.311Z,10.01
2017-05-08T00:50:04.027Z,9.96
2017-05-08T00:51:18.962Z,9.94
2017-05-08T00:52:04.371Z,9.9
2017-05-08T00:53:04.391Z,9.93
2017-05-08T00:54:04.413Z,9.75
2017-05-08T00:55:04.435Z,9.78
2017-05-08T00:56:04.455Z,9.84
2017-05-08T00:57:04.476Z,9.79
2017-05-08T00:58:04.496Z,9.75
2017-05-08T00:59:04.513Z,9.86
2017-05-08T01:02:04.578Z,9.78
2017-05-08T01:03:04.600Z,9.69
2017-05-08T01:04:04.620Z,9.66
2017-05-08T01:05:04.642Z,9.65
2017-05-08T01:06:19.278Z,9.58
2017-05-08T01:07:04.683Z,9.6
2017-05-08T01:08:04.706Z,9.65
2017-05-08T01:09:04.726Z,9.61
2017-05-08T01:10:19.363Z,9.46
2017-05-08T01:12:04.789Z,9.43
2017-05-08T01:13:04.807Z,9.36
2017-05-08T01:14:04.864Z,9.32
2017-05-08T01:15:04.853Z,9.35
2017-05-08T01:16:04.873Z,9.32
2017-05-08T01:17:04.601Z,9.39
2017-05-08T01:18:04.915Z,9.28
2017-05-08T01:19:04.934Z,9.26
2017-05-08T01:20:04.956Z,9.31
2017-05-08T01:21:19.593Z,9.23
2017-05-08T01:22:04.694Z,9.18
2017-05-08T01:23:05.019Z,9.13
2017-05-08T01:24:05.040Z,9.13
2017-05-08T01:25:05.058Z,9.14
2017-05-08T01:26:19.394Z,9.21
2017-05-08T01:27:05.102Z,9.33
2017-05-08T01:28:05.126Z,9.35
2017-05-08T01:29:04.839Z,9.32
2017-05-08T01:30:05.162Z,9.28
2017-05-08T01:31:05.184Z,9.36
2017-05-08T01:32:05.204Z,9.42
2017-05-08T01:33:05.227Z,9.46
2017-05-08T01:34:05.247Z,9.51
2017-05-08T01:36:05.287Z,9.58
2017-05-08T01:37:05.308Z,9.6
2017-05-08T01:38:05.334Z,9.66
2017-05-08T01:39:19.965Z,9.6
2017-05-08T01:40:05.072Z,9.61
2017-05-08T01:41:05.394Z,9.56
2017-05-08T01:42:20.029Z,9.61
2017-05-08T01:43:05.482Z,9.6
2017-05-08T01:44:05.454Z,9.68
2017-05-08T01:45:05.171Z,9.74
2017-05-08T01:46:05.494Z,9.89
2017-05-08T01:48:05.540Z,9.84
2017-05-08T01:49:05.558Z,9.91
2017-05-08T01:50:05.273Z,9.99
2017-05-08T01:52:05.619Z,9.94
2017-05-08T01:53:05.641Z,10.02
2017-05-08T01:54:20.277Z,10.09
2017-05-08T01:55:05.685Z,10.11
2017-05-08T01:56:05.704Z,10.17
2017-05-08T01:57:05.422Z,10.22
2017-05-08T01:58:20.362Z,10.08
2017-05-08T01:59:05.465Z,10.2
2017-05-08T02:00:05.483Z,10.07
2017-05-08T02:01:05.811Z,10.2
2017-05-08T02:02:05.831Z,10.25
2017-05-08T02:03:05.853Z,10.27
2017-05-08T02:04:05.870Z,10.22
2017-05-08T02:05:05.895Z,10.17
2017-05-08T02:07:05.934Z,10.12
2017-05-08T02:08:05.954Z,10.04
2017-05-08T02:09:05.974Z,10.05
2017-05-08T02:10:20.611Z,10.05
2017-05-08T02:11:20.631Z,10.18
2017-05-08T02:12:06.040Z,10.05
2017-05-08T02:13:20.676Z,10.17
2017-05-08T02:14:06.078Z,10.14
2017-05-08T02:15:05.797Z,10.11
2017-05-08T02:16:06.121Z,10.18
2017-05-08T02:17:05.839Z,10.02
2017-05-08T02:18:06.165Z,10.07
2017-05-08T02:19:06.182Z,10.05
2017-05-08T02:20:06.212Z,10.12
2017-05-08T02:21:06.228Z,10.05
2017-05-08T02:22:06.287Z,9.96
2017-05-08T02:23:20.885Z,9.96
2017-05-08T02:24:06.289Z,9.94
2017-05-08T02:25:06.316Z,9.97
2017-05-08T02:26:06.333Z,9.97
2017-05-08T02:27:06.048Z,9.97
2017-05-08T02:28:06.371Z,9.74
2017-05-08T02:29:06.395Z,9.74
2017-05-08T02:30:06.412Z,9.58
2017-05-08T02:31:06.433Z,9.65
2017-05-08T02:32:06.457Z,9.64
2017-05-08T02:33:06.476Z,9.51
2017-05-08T02:34:06.497Z,9.48
2017-05-08T02:35:06.557Z,9.48
2017-05-08T02:38:06.581Z,9.39
2017-05-08T02:39:06.603Z,9.24
2017-05-08T02:40:06.627Z,9.29
2017-05-08T02:41:21.258Z,9.24
2017-05-08T02:42:06.664Z,9.21
2017-05-08T02:43:06.692Z,9.17
2017-05-08T02:44:06.702Z,9.1
2017-05-08T02:46:06.444Z,9.11
2017-05-08T02:47:06.466Z,8.94
2017-05-08T02:48:06.786Z,8.96
2017-05-08T02:49:06.811Z,8.99
2017-05-08T02:50:06.836Z,8.94
2017-05-08T02:51:06.850Z,9.15
2017-05-08T02:52:06.870Z,8.95
2017-05-08T02:54:06.922Z,8.8
2017-05-08T02:55:21.245Z,8.81
2017-05-08T02:57:06.971Z,8.61
2017-05-08T02:58:21.608Z,8.76
2017-05-08T02:59:06.709Z,8.65
2017-05-08T03:00:06.733Z,8.7
2017-05-08T03:01:21.670Z,8.74
2017-05-08T03:02:07.075Z,8.68
2017-05-08T03:03:07.095Z,8.79
2017-05-08T03:04:07.116Z,8.81
2017-05-08T03:05:07.138Z,8.96
2017-05-08T03:06:07.159Z,9.04
2017-05-08T03:07:07.176Z,9.1
2017-05-08T03:08:07.208Z,8.91
2017-05-08T03:12:21.897Z,8.87
2017-05-08T03:13:07.299Z,8.89
2017-05-08T03:14:07.325Z,8.84
2017-05-08T03:15:07.340Z,8.96
2017-05-08T03:16:07.360Z,9.04
2017-05-08T03:17:21.997Z,9.1
2017-05-08T03:18:07.401Z,9.11
2017-05-08T03:19:07.424Z,9.15
2017-05-08T03:20:07.444Z,9.31
2017-05-08T03:21:07.464Z,9.46
2017-05-08T03:22:07.485Z,9.38
2017-05-08T03:23:07.534Z,9.46
2017-05-08T03:24:07.524Z,9.43
2017-05-08T03:25:07.547Z,9.43
2017-05-08T03:26:07.571Z,9.4
2017-05-08T03:27:07.590Z,9.47
2017-05-08T03:28:07.607Z,9.46
2017-05-08T03:29:22.244Z,9.47
2017-05-08T03:30:07.346Z,9.43
2017-05-08T03:31:07.667Z,9.5
2017-05-08T03:32:07.688Z,9.39
2017-05-08T03:33:22.326Z,9.46
2017-05-08T03:34:07.741Z,9.47
2017-05-08T03:35:07.751Z,9.46
2017-05-08T03:36:07.777Z,9.46
2017-05-08T03:37:07.795Z,9.6
2017-05-08T03:39:07.834Z,9.58
2017-05-08T03:40:07.852Z,9.69
2017-05-08T03:41:07.876Z,9.65
2017-05-08T03:44:07.935Z,9.78
2017-05-08T03:45:07.657Z,9.84
2017-05-08T03:46:07.979Z,9.84
2017-05-08T03:47:08.000Z,9.99
2017-05-08T03:48:22.634Z,9.94
2017-05-08T03:49:08.037Z,9.99
2017-05-08T03:50:08.059Z,9.87
2017-05-08T03:51:08.080Z,9.81
2017-05-08T03:52:08.103Z,9.81
2017-05-08T03:53:08.123Z,9.94
2017-05-08T03:54:08.140Z,9.96
2017-05-08T03:56:08.184Z,9.93
2017-05-08T03:57:08.202Z,9.83
2017-05-08T03:58:08.228Z,9.84
2017-05-08T03:59:22.863Z,9.94
2017-05-08T04:00:22.882Z,9.87
2017-05-08T04:01:08.286Z,9.99
2017-05-08T04:02:08.360Z,9.99
2017-05-08T04:03:08.326Z,9.94
2017-05-08T04:04:08.349Z,10.18
2017-05-08T04:05:08.064Z,10.08
2017-05-08T04:06:08.388Z,10.11
2017-05-08T04:07:08.412Z,10.15
2017-05-08T04:08:08.127Z,10.15
2017-05-08T04:09:08.451Z,10.26
2017-05-08T04:10:08.173Z,10.15
2017-05-08T04:11:08.492Z,10.2
2017-05-08T04:12:08.516Z,10.2
2017-05-08T04:14:08.559Z,10.29
2017-05-08T04:15:23.193Z,10.22
2017-05-08T04:16:08.595Z,10.26
2017-05-08T04:17:08.318Z,10.25
2017-05-08T04:18:08.637Z,10.34
2017-05-08T04:19:08.666Z,10.25
2017-05-08T04:20:23.297Z,10.36
2017-05-08T04:21:08.699Z,10.38
2017-05-08T04:22:08.417Z,10.38
2017-05-08T04:23:08.740Z,10.34
2017-05-08T04:24:08.760Z,10.45
2017-05-08T04:25:08.785Z,10.52
2017-05-08T04:26:08.802Z,10.45
2017-05-08T04:27:08.828Z,10.48
2017-05-08T04:28:08.842Z,10.47
2017-05-08T04:30:08.579Z,10.59
2017-05-08T04:31:23.523Z,10.45
2017-05-08T04:32:08.930Z,10.66
2017-05-08T04:33:08.950Z,10.63
2017-05-08T04:34:08.665Z,10.7
2017-05-08T04:35:08.993Z,10.63
2017-05-08T04:36:23.625Z,10.66
2017-05-08T04:37:09.030Z,10.63
2017-05-08T04:38:09.051Z,10.64
2017-05-08T04:40:09.119Z,10.74
2017-05-08T04:41:08.809Z,10.76
2017-05-08T04:42:09.134Z,10.76
2017-05-08T04:43:09.158Z,10.78
2017-05-08T04:44:09.179Z,10.71
2017-05-08T04:45:09.197Z,10.7
2017-05-08T04:47:09.237Z,10.78
2017-05-08T04:48:09.258Z,10.79
2017-05-08T04:49:23.896Z,10.71
2017-05-08T04:50:09.300Z,10.79
2017-05-08T04:51:09.321Z,10.76
2017-05-08T04:52:23.961Z,10.76
2017-05-08T04:53:09.363Z,10.86
2017-05-08T04:55:09.403Z,10.81
2017-05-08T04:56:09.122Z,10.82
2017-05-08T04:57:09.446Z,10.88
2017-05-08T04:58:09.162Z,10.94
2017-05-08T04:59:09.488Z,10.84
2017-05-08T05:00:09.508Z,10.89
2017-05-08T05:01:09.530Z,10.86
2017-05-08T05:02:24.169Z,10.86
2017-05-08T05:03:09.571Z,10.85
2017-05-08T05:04:24.207Z,10.79
2017-05-08T05:05:09.614Z,10.71
2017-05-08T05:06:09.636Z,10.79
2017-05-08T05:07:09.658Z,10.78
2017-05-08T05:08:24.293Z,10.91
2017-05-08T05:09:09.699Z,10.88
2017-05-08T05:10:09.715Z,10.84
2017-05-08T05:11:09.735Z,10.86
2017-05-08T05:12:09.760Z,10.82
2017-05-08T05:13:09.777Z,10.79
2017-05-08T05:14:09.797Z,10.78
2017-05-08T05:15:09.821Z,10.76
2017-05-08T05:16:09.842Z,10.78
2017-05-08T05:18:24.500Z,10.74
2017-05-08T05:19:24.521Z,10.82
2017-05-08T05:20:24.541Z,10.67
2017-05-08T05:21:24.587Z,10.67
2017-05-08T05:22:09.664Z,10.59
2017-05-08T05:23:24.603Z,10.64
2017-05-08T05:24:09.704Z,10.67
2017-05-08T05:25:10.028Z,10.67
2017-05-08T05:26:09.745Z,10.79
2017-05-08T05:27:09.771Z,10.71
2017-05-08T05:28:09.792Z,10.7
2017-05-08T05:29:09.809Z,10.73
2017-05-08T05:30:09.829Z,10.68
2017-05-08T05:32:10.175Z,10.47
2017-05-08T05:33:09.892Z,10.6
2017-05-08T05:34:09.915Z,10.55
2017-05-08T05:35:09.933Z,10.51
2017-05-08T05:36:24.873Z,10.48
2017-05-08T05:37:10.278Z,10.48
2017-05-08T05:38:10.302Z,10.51
2017-05-08T05:39:10.323Z,10.44
2017-05-08T05:40:10.342Z,10.53
2017-05-08T05:41:10.058Z,10.48
2017-05-08T05:42:10.081Z,10.47
2017-05-08T05:43:10.099Z,10.52
2017-05-08T05:44:09.816Z,10.53
2017-05-08T05:45:10.443Z,10.56
2017-05-08T05:46:10.164Z,10.47
2017-05-08T05:47:10.489Z,10.53
2017-05-08T05:49:10.227Z,10.66
2017-05-08T05:50:10.554Z,10.68
2017-05-08T05:51:10.566Z,10.67
2017-05-08T05:52:10.588Z,10.67
2017-05-08T05:53:10.309Z,10.74
2017-05-08T05:54:10.630Z,10.68
2017-05-08T05:55:25.268Z,10.71
2017-05-08T05:56:10.674Z,10.81
2017-05-08T05:57:10.389Z,10.91
2017-05-08T05:58:10.409Z,10.94
2017-05-08T05:59:10.734Z,11.03
2017-05-08T06:00:10.756Z,10.96
2017-05-08T06:01:10.790Z,11.03
2017-05-08T06:02:10.799Z,10.97
2017-05-08T06:03:10.816Z,10.89
2017-05-08T06:04:25.458Z,10.89
2017-05-08T06:05:10.860Z,10.91
2017-05-08T06:06:10.578Z,10.91
2017-05-08T06:07:25.518Z,10.97
2017-05-08T06:08:10.317Z,10.88
2017-05-08T06:09:25.558Z,11.07
2017-05-08T06:10:10.965Z,11.06
2017-05-08T06:11:25.600Z,11.14
2017-05-08T06:12:11.007Z,11.07
2017-05-08T06:13:11.036Z,11.17
2017-05-08T06:14:10.743Z,11.19
2017-05-08T06:15:10.764Z,11.24
2017-05-08T06:16:11.103Z,11.37
2017-05-08T06:18:11.129Z,11.29
2017-05-08T06:19:11.152Z,11.28
2017-05-08T06:20:10.871Z,11.25
2017-05-08T06:21:11.195Z,11.22
2017-05-08T06:22:11.219Z,11.25
2017-05-08T06:23:11.279Z,11.32
2017-05-08T06:24:25.872Z,11.11
2017-05-08T06:25:11.283Z,11.24
2017-05-08T06:26:11.297Z,11.09
2017-05-08T06:27:25.632Z,11.09
2017-05-08T06:28:11.340Z,11.1
2017-05-08T06:29:11.362Z,11.27
2017-05-08T06:30:11.383Z,11.27
2017-05-08T06:31:11.404Z,11.36
2017-05-08T06:32:11.129Z,11.37
2017-05-08T06:33:11.444Z,11.43
2017-05-08T06:35:11.490Z,11.44
2017-05-08T06:36:26.128Z,11.46
2017-05-08T06:37:11.530Z,11.58
2017-05-08T06:38:11.550Z,11.52
2017-05-08T06:39:26.189Z,11.6
2017-05-08T06:40:11.595Z,11.57
2017-05-08T06:41:11.613Z,11.58
2017-05-08T06:42:11.935Z,11.69
2017-05-08T06:43:26.274Z,11.73
2017-05-08T06:44:11.409Z,11.65
2017-05-08T06:45:11.699Z,11.69
2017-05-08T06:46:11.417Z,11.67
2017-05-08T06:47:11.436Z,11.65
2017-05-08T06:48:11.459Z,11.7
2017-05-08T06:49:11.782Z,11.65
2017-05-08T06:53:11.566Z,11.67
2017-05-08T06:54:11.893Z,11.67
2017-05-08T06:55:11.914Z,11.67
2017-05-08T06:56:26.549Z,11.64
2017-05-08T06:57:11.963Z,11.7
2017-05-08T06:58:26.592Z,11.52
2017-05-08T06:59:12.001Z,11.52
2017-05-08T07:00:12.018Z,11.57
2017-05-08T07:01:12.039Z,11.65
2017-05-08T07:02:12.061Z,11.72
2017-05-08T07:03:12.088Z,11.72
2017-05-08T07:04:11.801Z,11.76
2017-05-08T07:05:12.125Z,11.8
2017-05-08T07:06:11.845Z,11.98
2017-05-08T07:07:12.170Z,11.94
2017-05-08T07:08:11.586Z,12.01
2017-05-08T07:09:26.833Z,11.99
2017-05-08T07:10:26.544Z,11.99
2017-05-08T07:11:12.259Z,11.99
2017-05-08T07:12:11.969Z,12.01
2017-05-08T07:13:12.298Z,12.05
2017-05-08T07:14:12.318Z,12.07
2017-05-08T07:15:12.343Z,12.13
2017-05-08T07:16:12.361Z,12.19
2017-05-08T07:17:12.382Z,12.28
2017-05-08T07:18:12.406Z,12.21
2017-05-08T07:19:12.123Z,12.35
2017-05-08T07:20:12.146Z,12.42
2017-05-08T07:21:12.467Z,12.56
2017-05-08T07:23:12.216Z,12.75
2017-05-08T07:24:11.931Z,12.78
2017-05-08T07:25:12.554Z,12.67
2017-05-08T07:26:12.270Z,12.75
2017-05-08T07:27:12.607Z,12.7
2017-05-08T07:28:12.625Z,12.7
2017-05-08T07:29:12.640Z,12.52
2017-05-08T07:30:27.278Z,12.49
2017-05-08T07:31:12.684Z,12.59
2017-05-08T07:32:12.404Z,12.53
2017-05-08T07:33:12.426Z,12.47
2017-05-08T07:34:12.447Z,12.53
2017-05-08T07:35:12.771Z,12.65
2017-05-08T07:36:12.801Z,12.68
2017-05-08T07:37:12.817Z,12.64
2017-05-08T07:38:12.840Z,12.62
2017-05-08T07:39:12.561Z,12.46
2017-05-08T07:40:12.579Z,12.35
2017-05-08T07:41:27.217Z,12.35
2017-05-08T07:42:12.622Z,12.19
2017-05-08T07:43:27.562Z,12.12
2017-05-08T07:44:12.969Z,12.19
2017-05-08T07:45:12.687Z,12.13
2017-05-08T07:46:27.630Z,12.04
2017-05-08T07:47:13.033Z,11.96
2017-05-08T07:48:12.771Z,12.01
2017-05-08T07:49:12.772Z,11.96
2017-05-08T07:50:12.795Z,11.88
2017-05-08T07:51:13.123Z,11.91
2017-05-08T07:52:12.872Z,11.98
2017-05-08T07:53:13.163Z,11.96
2017-05-08T07:57:27.565Z,11.91
2017-05-08T07:58:27.890Z,11.95
2017-05-08T07:59:12.687Z,11.8
2017-05-08T08:00:13.317Z,11.72
2017-05-08T08:01:13.337Z,11.79
2017-05-08T08:02:27.671Z,11.86
2017-05-08T08:03:13.381Z,11.75
2017-05-08T08:04:13.405Z,11.76
2017-05-08T08:05:13.429Z,11.88
2017-05-08T08:06:13.455Z,12.02
2017-05-08T08:07:13.486Z,12.01
2017-05-08T08:08:13.511Z,12.1
2017-05-08T08:09:13.526Z,11.79
2017-05-08T08:10:13.547Z,11.75
2017-05-08T08:11:13.552Z,11.78
2017-05-08T08:12:13.578Z,11.79
2017-05-08T08:13:13.618Z,11.98
2017-05-08T08:14:28.235Z,11.95
2017-05-08T08:15:13.640Z,11.75
2017-05-08T08:16:13.663Z,11.7
2017-05-08T08:17:13.700Z,11.69
2017-05-08T08:18:28.322Z,11.58
2017-05-08T08:19:13.120Z,11.65
2017-05-08T08:20:13.447Z,11.52
2017-05-08T08:21:13.768Z,11.72
2017-05-08T08:22:13.794Z,11.79
2017-05-08T08:24:13.833Z,11.8
2017-05-08T08:26:13.881Z,11.6
2017-05-08T08:27:13.901Z,11.58
2017-05-08T08:28:13.931Z,11.58
2017-05-08T08:29:13.953Z,11.54
2017-05-08T08:30:28.581Z,11.52
2017-05-08T08:31:13.990Z,11.44
2017-05-08T08:32:14.008Z,11.37
2017-05-08T08:33:28.645Z,11.37
2017-05-08T08:34:14.064Z,11.4
2017-05-08T08:35:14.077Z,11.52
2017-05-08T08:36:14.094Z,11.46
2017-05-08T08:37:13.813Z,11.54
2017-05-08T08:38:14.137Z,11.52
2017-05-08T08:40:14.180Z,11.43
2017-05-08T08:41:13.904Z,11.43
2017-05-08T08:42:14.225Z,11.46
2017-05-08T08:43:14.242Z,11.33
2017-05-08T08:44:14.266Z,11.44
2017-05-08T08:45:28.904Z,11.43
2017-05-08T08:46:14.308Z,11.27
2017-05-08T08:47:14.331Z,11.32
2017-05-08T08:48:14.049Z,11.32
2017-05-08T08:49:14.373Z,11.33
2017-05-08T08:50:14.393Z,11.32
2017-05-08T08:51:14.414Z,11.37
2017-05-08T08:52:13.838Z,11.33
2017-05-08T08:53:14.457Z,11.32
2017-05-08T08:54:14.482Z,11.29
2017-05-08T08:55:14.502Z,11.28
2017-05-08T08:56:14.220Z,11.33
2017-05-08T08:57:14.239Z,11.35
2017-05-08T08:59:14.589Z,11.06
2017-05-08T09:00:29.227Z,11.03
2017-05-08T09:01:14.328Z,11.03
2017-05-08T09:02:14.658Z,11.14
2017-05-08T09:03:14.675Z,11.29
2017-05-08T09:04:14.393Z,11.24
2017-05-08T09:05:29.334Z,10.84
2017-05-08T09:06:14.738Z,10.86
2017-05-08T09:07:14.757Z,10.86
2017-05-08T09:08:14.784Z,10.94
2017-05-08T09:09:14.194Z,11.1
2017-05-08T09:10:14.520Z,11.17
2017-05-08T09:11:14.843Z,11.07
2017-05-08T09:13:14.580Z,11.09
2017-05-08T09:14:14.909Z,11.1
2017-05-08T09:15:14.926Z,11.07
2017-05-08T09:16:14.950Z,11.1
2017-05-08T09:17:29.587Z,11.11
2017-05-08T09:18:14.690Z,10.88
2017-05-08T09:19:15.013Z,11.06
2017-05-08T09:20:15.035Z,11.09
2017-05-08T09:21:29.688Z,11.04
2017-05-08T09:22:15.091Z,11.1
2017-05-08T09:23:15.098Z,11.28
2017-05-08T09:24:14.816Z,11.29
2017-05-08T09:26:15.163Z,11.49
2017-05-08T09:27:15.184Z,11.57
2017-05-08T09:28:14.902Z,11.73
2017-05-08T09:30:15.246Z,11.79
2017-05-08T09:31:14.965Z,11.79
2017-05-08T09:32:14.986Z,11.8
2017-05-08T09:33:15.010Z,11.9
2017-05-08T09:34:29.949Z,11.83
2017-05-08T09:35:15.050Z,11.76
2017-05-08T09:36:15.074Z,11.75
2017-05-08T09:37:30.015Z,11.67
2017-05-08T09:38:15.118Z,11.58
2017-05-08T09:39:15.139Z,11.54
2017-05-08T09:40:15.464Z,11.52
2017-05-08T09:41:15.517Z,11.46
2017-05-08T09:43:15.532Z,11.72
2017-05-08T09:44:15.549Z,11.62
2017-05-08T09:45:14.961Z,11.55
2017-05-08T09:46:15.290Z,11.69
2017-05-08T09:47:15.308Z,11.64
2017-05-08T09:48:15.331Z,11.67
2017-05-08T09:49:15.353Z,11.75
2017-05-08T09:50:15.373Z,11.76
2017-05-08T09:51:15.403Z,11.69
2017-05-08T09:52:15.719Z,11.73
2017-05-08T09:53:30.361Z,11.79
2017-05-08T09:54:15.762Z,11.85
2017-05-08T09:55:15.784Z,11.85
2017-05-08T09:56:15.805Z,11.8
2017-05-08T09:57:15.827Z,11.76
2017-05-08T09:58:15.241Z,11.7
2017-05-08T10:00:15.890Z,11.7
2017-05-08T10:01:15.927Z,11.76
2017-05-08T10:02:15.955Z,11.8
2017-05-08T10:03:15.960Z,11.72
2017-05-08T10:04:15.981Z,11.69
2017-05-08T10:05:15.998Z,11.75
2017-05-08T10:06:15.715Z,11.75
2017-05-08T10:07:16.045Z,11.78
2017-05-08T10:08:30.680Z,11.69
2017-05-08T10:09:15.785Z,11.75
2017-05-08T10:10:16.105Z,11.6
2017-05-08T10:11:16.131Z,11.64
2017-05-08T10:12:15.846Z,11.78
2017-05-08T10:13:15.868Z,11.72
2017-05-08T10:14:16.195Z,11.75
2017-05-08T10:15:16.226Z,11.8
2017-05-08T10:16:15.934Z,11.73
2017-05-08T10:17:15.961Z,11.8
2017-05-08T10:18:30.593Z,11.91
2017-05-08T10:19:16.311Z,12.04
2017-05-08T10:20:16.326Z,11.98
2017-05-08T10:21:30.960Z,11.83
2017-05-08T10:22:16.367Z,11.8
2017-05-08T10:23:16.083Z,11.8
2017-05-08T10:24:16.411Z,11.76
2017-05-08T10:25:16.429Z,11.95
2017-05-08T10:26:16.145Z,11.95
2017-05-08T10:27:16.475Z,12.04
2017-05-08T10:28:16.494Z,12.01
2017-05-08T10:30:16.536Z,12.01
2017-05-08T10:32:16.581Z,11.9
2017-05-08T10:34:16.319Z,12.14
2017-05-08T10:35:16.645Z,12.19
2017-05-08T10:36:30.979Z,12.32
2017-05-08T10:37:16.391Z,12.31
2017-05-08T10:38:16.407Z,12.17
2017-05-08T10:39:16.429Z,12.27
2017-05-08T10:40:31.368Z,12.35
2017-05-08T10:41:16.473Z,12.41
2017-05-08T10:42:16.494Z,12.17
2017-05-08T10:43:16.818Z,12.2
2017-05-08T10:44:16.539Z,12.24
2017-05-08T10:45:16.558Z,12.24
2017-05-08T10:46:16.580Z,12.2
2017-05-08T10:47:16.603Z,12.19
2017-05-08T10:48:16.626Z,12.05
2017-05-08T10:51:31.305Z,12.13
2017-05-08T10:52:16.711Z,12.21
2017-05-08T10:53:16.734Z,12.24
2017-05-08T10:54:16.755Z,12.34
2017-05-08T10:55:17.082Z,12.14
2017-05-08T10:56:31.717Z,12.2
2017-05-08T10:57:16.825Z,12.31
2017-05-08T10:58:17.150Z,12.28
2017-05-08T10:59:16.559Z,12.32
2017-05-08T11:00:17.186Z,12.28
2017-05-08T11:01:17.206Z,12.28
2017-05-08T11:02:17.229Z,12.16
2017-05-08T11:03:17.251Z,12.16
2017-05-08T11:04:17.275Z,12.19
2017-05-08T11:05:17.302Z,12.2
2017-05-08T11:06:17.322Z,12.2
2017-05-08T11:07:17.339Z,12.17
2017-05-08T11:08:17.059Z,12.17
2017-05-08T11:09:17.392Z,12.23
2017-05-08T11:10:17.418Z,12.27
2017-05-08T11:11:17.127Z,12.24
2017-05-08T11:12:32.065Z,12.38
2017-05-08T11:13:17.469Z,12.32
2017-05-08T11:14:17.492Z,12.45
2017-05-08T11:15:17.513Z,12.5
2017-05-08T11:16:17.535Z,12.53
2017-05-08T11:17:17.253Z,12.59
2017-05-08T11:18:17.275Z,12.45
2017-05-08T11:19:17.901Z,12.59
2017-05-08T11:20:17.625Z,12.57
2017-05-08T11:21:31.961Z,12.65
2017-05-08T11:22:17.670Z,12.65
2017-05-08T11:23:17.688Z,12.7
2017-05-08T11:24:17.411Z,12.57
2017-05-08T11:25:17.429Z,12.56
2017-05-08T11:26:17.452Z,12.53
2017-05-08T11:27:17.806Z,12.68
2017-05-08T11:28:32.414Z,12.67
2017-05-08T11:29:17.820Z,12.67
2017-05-08T11:30:17.847Z,12.67
2017-05-08T11:31:17.562Z,12.67
2017-05-08T11:32:17.582Z,12.52
2017-05-08T11:33:17.606Z,12.65
2017-05-08T11:34:17.934Z,12.49
2017-05-08T11:35:17.959Z,12.68
2017-05-08T11:36:17.972Z,12.77
2017-05-08T11:37:32.311Z,12.67
2017-05-08T11:38:18.018Z,12.65
2017-05-08T11:40:32.679Z,12.68
2017-05-08T11:41:17.780Z,12.79
2017-05-08T11:42:18.111Z,12.7
2017-05-08T11:43:32.745Z,12.77
2017-05-08T11:44:18.151Z,12.72
2017-05-08T11:45:18.174Z,12.75
2017-05-08T11:46:17.892Z,12.68
2017-05-08T11:47:18.220Z,12.5
2017-05-08T11:49:18.261Z,12.65
2017-05-08T11:50:18.284Z,12.53
2017-05-08T11:51:18.307Z,12.32
2017-05-08T11:52:18.332Z,12.23
2017-05-08T11:53:18.347Z,12.32
2017-05-08T11:54:18.373Z,12.31
2017-05-08T11:55:18.394Z,12.34
2017-05-08T11:56:18.114Z,12.38
2017-05-08T11:57:18.438Z,12.28
2017-05-08T11:58:18.466Z,12.28
2017-05-08T11:59:18.481Z,12.31
2017-05-08T12:00:18.535Z,12.2
2017-05-08T12:01:18.528Z,12.12
2017-05-08T12:02:18.251Z,12.24
2017-05-08T12:03:18.262Z,12.21
2017-05-08T12:04:18.591Z,12.29
2017-05-08T12:05:18.612Z,12.27
2017-05-08T12:06:18.640Z,12.14
2017-05-08T12:07:18.658Z,12.13
2017-05-08T12:08:18.682Z,12.02
2017-05-08T12:09:18.399Z,11.91
2017-05-08T12:10:18.731Z,11.96
2017-05-08T12:11:18.743Z,11.78
2017-05-08T12:12:18.461Z,11.75
2017-05-08T12:13:18.795Z,11.78
2017-05-08T12:14:18.811Z,11.75
2017-05-08T12:15:33.446Z,11.9
2017-05-08T12:16:18.855Z,11.79
2017-05-08T12:17:18.875Z,11.9
2017-05-08T12:18:18.893Z,11.76
2017-05-08T12:20:18.937Z,11.8
2017-05-08T12:22:18.983Z,11.94
2017-05-08T12:26:19.069Z,12.19
2017-05-08T12:27:19.091Z,12.24
2017-05-08T12:28:33.729Z,12.32
2017-05-08T12:29:19.134Z,12.35
2017-05-08T12:30:19.159Z,12.47
2017-05-08T12:31:33.795Z,12.29
2017-05-08T12:32:18.898Z,12.37
2017-05-08T12:33:18.919Z,12.46
2017-05-08T12:34:19.247Z,12.27
2017-05-08T12:35:18.963Z,12.41
2017-05-08T12:36:19.017Z,12.34
2017-05-08T12:37:19.309Z,12.35
2017-05-08T12:38:19.339Z,12.42
2017-05-08T12:39:19.357Z,12.47
2017-05-08T12:40:19.374Z,12.41
2017-05-08T12:41:19.397Z,12.37
2017-05-08T12:42:19.422Z,12.41
2017-05-08T12:43:19.139Z,12.57
2017-05-08T12:44:19.160Z,12.68
2017-05-08T12:45:19.484Z,12.65
2017-05-08T12:46:19.513Z,12.54
2017-05-08T12:47:34.145Z,12.46
2017-05-08T12:48:19.553Z,12.45
2017-05-08T12:49:19.572Z,12.38
2017-05-08T12:50:19.599Z,12.35
2017-05-08T12:51:19.618Z,12.42
2017-05-08T12:52:19.640Z,12.39
2017-05-08T12:53:19.665Z,12.41
2017-05-08T12:55:19.704Z,12.34
2017-05-08T12:57:19.751Z,12.16
2017-05-08T12:58:19.773Z,12.05
2017-05-08T12:59:19.792Z,12.13
2017-05-08T13:00:19.817Z,12.28
2017-05-08T13:01:19.843Z,12.27
2017-05-08T13:02:19.858Z,12.39
2017-05-08T13:03:34.749Z,12.34
2017-05-08T13:04:19.903Z,12.29
2017-05-08T13:05:19.931Z,12.2
2017-05-08T13:06:19.983Z,12.02
2017-05-08T13:07:19.973Z,11.62
2017-05-08T13:08:19.991Z,11.07
2017-05-08T13:09:20.013Z,10.38
2017-05-08T13:10:20.039Z,10.18
2017-05-08T13:11:20.055Z,9.81
2017-05-08T13:13:20.102Z,9.39
2017-05-08T13:15:20.143Z,9.15
2017-05-08T13:16:20.170Z,9.05
2017-05-08T13:17:20.188Z,8.99
2017-05-08T13:18:34.828Z,8.87
2017-05-08T13:19:20.230Z,8.98
2017-05-08T13:20:20.250Z,8.91
2017-05-08T13:21:20.274Z,8.94
2017-05-08T13:22:20.295Z,8.86
2017-05-08T13:23:20.324Z,8.87
2017-05-08T13:24:20.341Z,8.95
2017-05-08T13:25:20.357Z,8.81
2017-05-08T13:26:20.378Z,8.84
2017-05-08T13:27:20.403Z,8.84
2017-05-08T13:28:20.422Z,8.84
2017-05-08T13:29:20.440Z,8.89
2017-05-08T13:30:20.460Z,8.7
2017-05-08T13:31:20.177Z,8.74
2017-05-08T13:32:20.202Z,8.8
2017-05-08T13:33:20.523Z,8.79
2017-05-08T13:34:20.544Z,8.79
2017-05-08T13:35:20.570Z,8.74
2017-05-08T13:36:20.586Z,8.65
2017-05-08T13:37:20.606Z,8.58
2017-05-08T13:38:20.630Z,8.52
2017-05-08T13:39:20.653Z,8.48
2017-05-08T13:40:20.665Z,8.36
2017-05-08T13:41:20.688Z,8.45
2017-05-08T13:42:20.706Z,8.53
2017-05-08T13:45:35.386Z,8.61
2017-05-08T13:46:35.404Z,8.83
2017-05-08T13:47:35.424Z,8.79
2017-05-08T13:48:20.528Z,8.74
2017-05-08T13:49:20.847Z,8.8
2017-05-08T13:50:35.485Z,8.83
2017-05-08T13:51:20.889Z,8.71
2017-05-08T13:52:20.923Z,8.8
2017-05-08T13:53:20.931Z,9.02
2017-05-08T13:54:20.948Z,8.87
2017-05-08T13:55:20.973Z,8.89
2017-05-08T13:56:20.990Z,8.87
2017-05-08T13:57:21.016Z,8.91
2017-05-08T13:59:21.054Z,8.83
2017-05-08T14:00:21.082Z,8.83
2017-05-08T14:02:35.730Z,8.7
2017-05-08T14:03:21.137Z,8.8
2017-05-08T14:04:21.155Z,8.81
2017-05-08T14:05:21.173Z,8.96
2017-05-08T14:06:35.813Z,8.89
2017-05-08T14:07:21.217Z,8.91